Time;durP1;ratioP1;P1;durP2;ratioP2;P2;SDS_P1;SDS_P2;PMS_P1;PMS_P2;Temp;Humidity;BMP_temperature;BMP_pressure;BME280_temperature;BME280_humidity;BME280_pressure;Samples;Min_cycle;Max_cycle;Signal;HPM_P1;HPM_P2
2022/05/10 00:00:55;;;;;;;;;;;;;;;19.05;63.20;99266.44;2099461;28;19935;-51
2022/05/10 00:01:56;;;;;;;;;;;;;;;19.06;62.94;99268.94;2094940;28;19974;-51
2022/05/10 00:02:59;;;;;;;;;;;;;;;19.05;62.74;99269.13;2094520;28;19928;-49
2022/05/10 00:04:02;;;;;;;;;;;;;;;19.04;63.20;99271.00;2096084;28;20542;-49
2022/05/10 00:05:03;;;;;;;;;;;;;;;19.04;62.91;99262.94;2096730;28;19928;-50
2022/05/10 00:06:07;;;;;;;;;;;;;;;19.05;63.19;99261.06;2098155;28;19932;-48
2022/05/10 00:07:07;;;;;;;;;;;;;;;19.05;62.96;99261.06;2099191;28;19935;-47
2022/05/10 00:08:11;;;;;;;;;;;;;;;19.05;62.91;99255.69;2099683;28;20023;-47
2022/05/10 00:09:12;;;;;;;;;;;;;;;19.05;63.10;99258.38;2099727;28;19980;-53
2022/05/10 00:10:14;;;;;;;;;;;;;;;19.03;63.12;99257.72;2095940;28;20471;-50
2022/05/10 00:11:14;;;;;;;;;;;;;;;19.03;62.98;99261.28;2090222;28;19928;-54
2022/05/10 00:12:16;;;;;;;;;;;;;;;19.03;63.02;99258.59;2096628;28;19967;-52
2022/05/10 00:13:17;;;;;;;;;;;;;;;19.04;63.16;99259.41;2101513;28;20012;-50
2022/05/10 00:14:19;;;;;;;;;;;;;;;19.02;63.17;99256.91;2100337;28;19962;-47
2022/05/10 00:15:19;;;;;;;;;;;;;;;19.03;63.04;99252.34;2100817;28;19935;-48
2022/05/10 00:16:21;;;;;;;;;;;;;;;19.04;62.89;99256.72;2099434;28;19928;-55
2022/05/10 00:17:26;;;;;;;;;;;;;;;19.04;62.96;99265.63;2091615;28;22480;-51
2022/05/10 00:18:29;;;;;;;;;;;;;;;19.03;63.23;99257.72;2096891;28;19931;-48
2022/05/10 00:19:30;;;;;;;;;;;;;;;19.02;62.79;99258.75;2091714;28;19932;-51
2022/05/10 00:20:32;;;;;;;;;;;;;;;19.02;62.96;99261.44;2099431;28;19933;-48
2022/05/10 00:21:34;;;;;;;;;;;;;;;19.01;63.12;99255.25;2097850;28;20046;-48
2022/05/10 00:22:35;;;;;;;;;;;;;;;19.02;62.80;99256.06;2098046;28;19931;-46
2022/05/10 00:23:36;;;;;;;;;;;;;;;19.02;63.13;99250.69;2100857;28;19932;-51
2022/05/10 00:24:37;;;;;;;;;;;;;;;19.02;62.89;99254.22;2101025;28;20247;-54
2022/05/10 00:25:38;;;;;;;;;;;;;;;19.01;62.91;99249.88;2099464;28;19924;-48
2022/05/10 00:26:40;;;;;;;;;;;;;;;19.02;62.91;99250.69;2100038;28;19928;-51
2022/05/10 00:27:40;;;;;;;;;;;;;;;19.02;62.79;99250.69;2090929;28;19932;-49
2022/05/10 00:28:42;;;;;;;;;;;;;;;19.02;63.13;99248.00;2097791;28;19947;-50
2022/05/10 00:29:42;;;;;;;;;;;;;;;19.02;62.89;99256.06;2098040;28;19935;-54
2022/05/10 00:30:44;;;;;;;;;;;;;;;19.00;62.91;99248.22;2100995;28;19963;-51
2022/05/10 00:31:45;;;;;;;;;;;;;;;19.00;63.11;99247.34;2097053;28;19970;-46
2022/05/10 00:32:46;;;;;;;;;;;;;;;19.01;63.19;99246.34;2094600;28;19932;-49
2022/05/10 00:33:47;;;;;;;;;;;;;;;19.01;63.15;99247.19;2095668;28;19928;-51
2022/05/10 00:34:48;;;;;;;;;;;;;;;19.00;62.94;99244.66;2100021;28;19931;-54
2022/05/10 00:35:49;;;;;;;;;;;;;;;19.00;63.10;99244.66;2097614;28;19939;-50
2022/05/10 00:36:52;;;;;;;;;;;;;;;19.00;62.97;99247.34;2098138;28;19924;-49
2022/05/10 00:37:55;;;;;;;;;;;;;;;18.98;62.91;99251.06;2098294;28;20063;-51
2022/05/10 00:38:57;;;;;;;;;;;;;;;19.00;63.15;99248.22;2098880;28;19948;-52
2022/05/10 00:39:59;;;;;;;;;;;;;;;18.99;63.24;99243.84;2100197;28;20401;-48
2022/05/10 00:41:06;;;;;;;;;;;;;;;19.00;63.23;99248.22;2097399;28;19924;-48
2022/05/10 00:42:11;;;;;;;;;;;;;;;19.00;63.15;99247.34;2096815;28;20450;-49
2022/05/10 00:43:18;;;;;;;;;;;;;;;19.01;62.83;99246.34;2097266;28;20553;-47
2022/05/10 00:44:20;;;;;;;;;;;;;;;19.01;63.10;99244.50;2099356;28;19924;-48
2022/05/10 00:45:25;;;;;;;;;;;;;;;19.01;62.90;99251.72;2096858;28;19938;-49
2022/05/10 00:46:29;;;;;;;;;;;;;;;19.00;62.96;99241.97;2093393;28;19932;-47
2022/05/10 00:47:34;;;;;;;;;;;;;;;19.00;62.90;99236.59;2096842;28;19932;-52
2022/05/10 00:48:41;;;;;;;;;;;;;;;18.99;62.93;99243.84;2089498;28;19936;-50
2022/05/10 00:49:44;;;;;;;;;;;;;;;19.00;63.13;99247.34;2094642;28;19934;-47
2022/05/10 00:50:46;;;;;;;;;;;;;;;19.00;62.90;99241.97;2098481;28;19931;-51
2022/05/10 00:51:53;;;;;;;;;;;;;;;19.00;62.96;99247.34;2097237;28;20058;-52
2022/05/10 00:52:57;;;;;;;;;;;;;;;18.99;62.72;99243.84;2099419;28;19928;-50
2022/05/10 00:54:01;;;;;;;;;;;;;;;18.98;62.95;99237.63;2097720;28;19931;-49
2022/05/10 00:55:05;;;;;;;;;;;;;;;18.96;62.87;99237.00;2100763;28;19946;-50
2022/05/10 00:56:10;;;;;;;;;;;;;;;18.98;63.09;99242.19;2096139;28;20007;-49
2022/05/10 00:57:15;;;;;;;;;;;;;;;18.97;63.30;99237.81;2097715;28;19940;-47
2022/05/10 00:58:21;;;;;;;;;;;;;;;18.97;63.33;99238.69;2097028;28;19929;-49
2022/05/10 00:59:26;;;;;;;;;;;;;;;18.97;63.21;99232.44;2101031;28;19969;-48
2022/05/10 01:00:28;;;;;;;;;;;;;;;18.97;62.90;99237.81;2097848;28;19932;-50
2022/05/10 01:01:33;;;;;;;;;;;;;;;18.96;62.94;99226.25;2097971;28;19932;-47
2022/05/10 01:02:39;;;;;;;;;;;;;;;18.95;62.93;99235.34;2096055;28;19955;-50
2022/05/10 01:03:45;;;;;;;;;;;;;;;18.97;63.04;99238.69;2096102;28;19928;-48
2022/05/10 01:04:49;;;;;;;;;;;;;;;18.97;62.91;99243.19;2094122;28;20019;-48
2022/05/10 01:05:56;;;;;;;;;;;;;;;18.96;63.15;99231.63;2099588;28;20010;-47
2022/05/10 01:07:01;;;;;;;;;;;;;;;18.96;62.80;99236.16;2098728;28;19965;-48
2022/05/10 01:08:08;;;;;;;;;;;;;;;18.96;62.88;99234.31;2100205;28;19924;-47
2022/05/10 01:09:12;;;;;;;;;;;;;;;18.96;63.15;99234.31;2094840;28;19965;-51
2022/05/10 01:10:19;;;;;;;;;;;;;;;18.96;63.11;99239.69;2099466;28;19936;-48
2022/05/10 01:11:21;;;;;;;;;;;;;;;18.95;63.06;99235.34;2092164;28;19964;-48
2022/05/10 01:12:26;;;;;;;;;;;;;;;18.96;62.87;99234.31;2095173;28;20048;-48
2022/05/10 01:13:28;;;;;;;;;;;;;;;18.96;62.84;99237.00;2099906;28;20422;-47
2022/05/10 01:14:33;;;;;;;;;;;;;;;18.96;62.88;99234.31;2097095;28;19932;-51
2022/05/10 01:15:34;;;;;;;;;;;;;;;18.95;62.97;99235.34;2099138;28;19955;-50
2022/05/10 01:16:36;;;;;;;;;;;;;;;18.95;63.13;99235.34;2101411;28;20679;-50
2022/05/10 01:17:37;;;;;;;;;;;;;;;18.96;62.98;99237.00;2099654;28;19932;-51
2022/05/10 01:18:40;;;;;;;;;;;;;;;18.95;62.89;99229.97;2093613;28;20015;-48
2022/05/10 01:19:42;;;;;;;;;;;;;;;18.95;63.10;99229.97;2095837;28;19975;-49
2022/05/10 01:20:46;;;;;;;;;;;;;;;18.94;62.91;99233.69;2097637;28;20013;-48
2022/05/10 01:21:55;;;;;;;;;;;;;;;18.95;62.90;99229.97;2097659;28;19932;-51
2022/05/10 01:23:04;;;;;;;;;;;;;;;18.95;62.92;99227.28;2099772;28;19928;-51
2022/05/10 01:24:22;;;;;;;;;;;;;;;18.94;62.95;99230.13;2101804;28;19932;-47
2022/05/10 01:25:35;;;;;;;;;;;;;;;18.95;63.12;99229.13;2101746;28;19928;-48
2022/05/10 01:26:45;;;;;;;;;;;;;;;18.95;62.90;99231.81;2101159;28;20026;-53
2022/05/10 01:27:55;;;;;;;;;;;;;;;18.93;62.91;99226.63;2098892;28;19963;-47
2022/05/10 01:29:01;;;;;;;;;;;;;;;18.94;62.88;99235.50;2098826;28;20019;-49
2022/05/10 01:30:05;;;;;;;;;;;;;;;18.95;63.15;99229.97;2098947;28;19924;-47
2022/05/10 01:31:09;;;;;;;;;;;;;;;18.93;62.88;99228.47;2097306;28;20310;-48
2022/05/10 01:33:34;;;;;;;;;;;;;;;18.93;62.89;99226.63;2098814;28;19928;-53
2022/05/10 01:34:34;;;;;;;;;;;;;;;18.93;62.87;99229.31;2097149;28;20351;-46
2022/05/10 01:35:40;;;;;;;;;;;;;;;18.93;63.17;99225.78;2098241;28;19928;-50
2022/05/10 01:36:44;;;;;;;;;;;;;;;18.93;62.94;99232.00;2100979;28;19946;-50
2022/05/10 01:37:48;;;;;;;;;;;;;;;18.92;63.20;99229.53;2098477;28;20600;-46
2022/05/10 01:38:55;;;;;;;;;;;;;;;18.92;62.92;99227.66;2097408;28;19932;-47
2022/05/10 01:39:58;;;;;;;;;;;;;;;18.92;62.95;99224.97;2097905;28;19965;-47
2022/05/10 01:41:04;;;;;;;;;;;;;;;18.93;62.95;99228.47;2099786;28;19931;-47
2022/05/10 01:42:09;;;;;;;;;;;;;;;18.92;62.93;99224.97;2098968;28;20526;-50
2022/05/10 01:43:12;;;;;;;;;;;;;;;18.93;62.91;99223.09;2099699;28;20410;-52
2022/05/10 01:44:22;;;;;;;;;;;;;;;18.92;63.16;99221.47;2100507;28;19948;-51
2022/05/10 01:45:26;;;;;;;;;;;;;;;18.92;62.91;99224.97;2098959;28;19924;-48
2022/05/10 01:46:30;;;;;;;;;;;;;;;18.91;62.94;99228.66;2095408;28;19976;-47
2022/05/10 01:47:32;;;;;;;;;;;;;;;18.90;63.03;99227.00;2098297;28;21310;-47
2022/05/10 01:48:37;;;;;;;;;;;;;;;18.90;62.96;99227.00;2098031;28;19971;-47
2022/05/10 01:49:44;;;;;;;;;;;;;;;18.91;63.13;99225.16;2096492;28;19928;-48
2022/05/10 01:50:46;;;;;;;;;;;;;;;18.91;62.93;99219.78;2098384;28;19928;-52
2022/05/10 01:51:50;;;;;;;;;;;;;;;18.91;62.91;99225.16;2099492;28;19932;-51
2022/05/10 01:52:57;;;;;;;;;;;;;;;18.91;62.94;99225.16;2099919;28;19924;-51
2022/05/10 01:54:01;;;;;;;;;;;;;;;18.91;63.13;99217.91;2100621;28;19932;-50
2022/05/10 01:55:09;;;;;;;;;;;;;;;18.92;62.78;99224.97;2099414;28;19957;-49
2022/05/10 01:56:13;;;;;;;;;;;;;;;18.91;62.92;99217.91;2101166;28;20036;-49
2022/05/10 01:57:15;;;;;;;;;;;;;;;18.91;63.07;99217.91;2098762;28;19939;-51
2022/05/10 01:58:18;;;;;;;;;;;;;;;18.92;63.01;99226.81;2095547;28;19934;-50
2022/05/10 01:59:20;;;;;;;;;;;;;;;18.90;63.16;99228.88;2099819;28;19925;-49
2022/05/10 02:00:23;;;;;;;;;;;;;;;18.89;63.06;99219.97;2100244;28;20215;-52
2022/05/10 02:01:27;;;;;;;;;;;;;;;18.90;63.17;99224.31;2099009;28;19931;-47
2022/05/10 02:02:30;;;;;;;;;;;;;;;18.91;62.92;99222.47;2097489;28;19932;-48
2022/05/10 02:03:35;;;;;;;;;;;;;;;18.90;62.96;99221.63;2097096;28;20825;-47
2022/05/10 02:04:37;;;;;;;;;;;;;;;18.90;62.94;99227.00;2099326;28;19932;-47
2022/05/10 02:05:45;;;;;;;;;;;;;;;18.91;63.01;99222.47;2099409;28;20394;-50
2022/05/10 02:06:49;;;;;;;;;;;;;;;18.90;62.88;99221.63;2101994;28;19924;-47
2022/05/10 02:07:56;;;;;;;;;;;;;;;18.90;63.07;99227.00;2098620;28;19942;-49
2022/05/10 02:09:01;;;;;;;;;;;;;;;18.89;62.84;99225.34;2098536;28;19928;-51
2022/05/10 02:10:05;;;;;;;;;;;;;;;18.89;63.14;99219.16;2096056;28;19928;-55
2022/05/10 02:11:08;;;;;;;;;;;;;;;18.89;63.29;99225.34;2100354;28;20370;-48
2022/05/10 02:12:12;;;;;;;;;;;;;;;18.88;62.94;99218.28;2099561;28;20485;-49
2022/05/10 02:13:13;;;;;;;;;;;;;;;18.89;62.87;99221.84;2102028;28;19924;-48
2022/05/10 02:14:20;;;;;;;;;;;;;;;18.89;63.04;99214.59;2098383;28;19936;-50
2022/05/10 02:15:26;;;;;;;;;;;;;;;18.88;63.07;99217.47;2102431;28;19935;-48
2022/05/10 02:16:31;;;;;;;;;;;;;;;18.88;62.83;99218.28;2100517;28;20460;-47
2022/05/10 02:17:35;;;;;;;;;;;;;;;18.88;63.09;99215.59;2095181;28;20382;-51
2022/05/10 02:18:42;;;;;;;;;;;;;;;18.88;62.98;99215.59;2096214;28;19928;-52
2022/05/10 02:19:46;;;;;;;;;;;;;;;18.88;62.76;99220.16;2098923;28;20007;-51
2022/05/10 02:20:51;;;;;;;;;;;;;;;18.87;62.76;99216.63;2101163;28;19931;-52
2022/05/10 02:21:53;;;;;;;;;;;;;;;18.88;62.79;99215.59;2098899;28;19967;-50
2022/05/10 02:22:57;;;;;;;;;;;;;;;18.88;62.71;99217.47;2098405;28;19955;-49
2022/05/10 02:24:04;;;;;;;;;;;;;;;18.89;63.11;99221.84;2099890;28;20058;-49
2022/05/10 02:25:08;;;;;;;;;;;;;;;18.87;63.05;99215.81;2101074;28;19967;-47
2022/05/10 02:26:12;;;;;;;;;;;;;;;18.86;63.03;99215.00;2101354;28;20019;-48
2022/05/10 02:27:15;;;;;;;;;;;;;;;18.87;63.20;99219.34;2101093;28;19996;-47
2022/05/10 02:28:20;;;;;;;;;;;;;;;18.87;62.90;99210.44;2100919;28;20483;-47
2022/05/10 02:29:26;;;;;;;;;;;;;;;18.87;63.10;99211.25;2101495;28;19969;-49
2022/05/10 02:30:30;;;;;;;;;;;;;;;18.87;63.14;99213.94;2099896;28;19939;-48
2022/05/10 02:33:06;;;;;;;;;;;;;;;18.86;63.03;99212.31;2100424;28;19936;-52
2022/05/10 02:33:07;;;;;;;;;;;;;;;18.87;62.89;99210.44;2100372;28;20344;-50
2022/05/10 02:34:08;;;;;;;;;;;;;;;18.87;62.94;99205.88;2099074;28;19958;-52
2022/05/10 02:35:10;;;;;;;;;;;;;;;18.88;63.02;99204.03;2100315;28;19931;-51
2022/05/10 02:36:12;;;;;;;;;;;;;;;18.88;63.15;99204.03;2102407;28;19932;-51
2022/05/10 02:37:13;;;;;;;;;;;;;;;18.86;62.80;99206.94;2102572;28;19928;-50
2022/05/10 02:38:16;;;;;;;;;;;;;;;18.86;62.91;99198.88;2101467;28;19939;-50
2022/05/10 02:39:17;;;;;;;;;;;;;;;18.86;62.92;99203.38;2099344;28;19937;-49
2022/05/10 02:40:18;;;;;;;;;;;;;;;18.86;63.06;99206.94;2102041;28;19976;-52
2022/05/10 02:41:20;;;;;;;;;;;;;;;18.86;62.92;99212.31;2101520;28;19993;-50
2022/05/10 02:42:23;;;;;;;;;;;;;;;18.85;62.87;99207.94;2097294;28;19933;-49
2022/05/10 02:43:24;;;;;;;;;;;;;;;18.86;63.08;99203.38;2095745;28;19925;-50
2022/05/10 02:44:26;;;;;;;;;;;;;;;18.84;63.08;99200.91;2100565;28;19924;-52
2022/05/10 02:45:28;;;;;;;;;;;;;;;18.84;62.84;99200.91;2101772;28;19928;-50
2022/05/10 02:46:30;;;;;;;;;;;;;;;18.87;62.78;99205.06;2095213;28;19932;-48
2022/05/10 02:47:32;;;;;;;;;;;;;;;18.86;62.81;99206.06;2098608;28;19996;-47
2022/05/10 02:48:37;;;;;;;;;;;;;;;18.85;62.82;99205.25;2092803;28;20369;-49
2022/05/10 02:49:38;;;;;;;;;;;;;;;18.85;62.89;99196.34;2092312;28;19988;-54
2022/05/10 02:50:40;;;;;;;;;;;;;;;18.84;62.75;99195.53;2098013;28;20015;-50
2022/05/10 02:51:40;;;;;;;;;;;;;;;18.83;62.96;99201.06;2097659;28;19932;-49
2022/05/10 02:52:42;;;;;;;;;;;;;;;18.83;62.93;99199.22;2099542;28;20577;-51
2022/05/10 02:53:43;;;;;;;;;;;;;;;18.84;63.06;99195.53;2098495;28;19924;-49
2022/05/10 02:54:44;;;;;;;;;;;;;;;18.85;62.88;99202.56;2097395;28;19924;-50
2022/05/10 02:55:49;;;;;;;;;;;;;;;18.84;63.09;99205.44;2099997;28;20404;-48
2022/05/10 02:56:52;;;;;;;;;;;;;;;18.84;62.80;99200.91;2098911;28;19924;-48
2022/05/10 02:57:55;;;;;;;;;;;;;;;18.84;62.75;99200.91;2099512;28;19959;-49
2022/05/10 02:58:57;;;;;;;;;;;;;;;18.84;63.11;99194.69;2097466;28;19932;-49
2022/05/10 02:59:59;;;;;;;;;;;;;;;18.85;62.84;99199.03;2100171;28;19928;-46
2022/05/10 03:01:05;;;;;;;;;;;;;;;18.85;62.89;99196.34;2100528;28;19928;-48
2022/05/10 03:02:11;;;;;;;;;;;;;;;18.84;63.15;99198.22;2096568;28;19935;-55
2022/05/10 03:03:14;;;;;;;;;;;;;;;18.85;63.01;99201.72;2097658;28;20366;-48
2022/05/10 03:04:16;;;;;;;;;;;;;;;18.85;63.06;99205.25;2097731;28;20043;-50
2022/05/10 03:05:16;;;;;;;;;;;;;;;18.84;63.07;99208.13;2099929;28;19931;-50
2022/05/10 03:06:21;;;;;;;;;;;;;;;18.84;62.72;99206.28;2099909;28;19955;-47
2022/05/10 03:07:23;;;;;;;;;;;;;;;18.84;63.09;99213.50;2097942;28;19928;-52
2022/05/10 03:08:24;;;;;;;;;;;;;;;18.83;62.75;99207.28;2102408;28;19924;-51
2022/05/10 03:09:25;;;;;;;;;;;;;;;18.84;63.01;99206.28;2096460;28;20026;-47
2022/05/10 03:10:26;;;;;;;;;;;;;;;18.85;63.07;99205.25;2096819;28;20993;-52
2022/05/10 03:11:27;;;;;;;;;;;;;;;18.85;62.67;99207.09;2097175;28;20378;-48
2022/05/10 03:12:28;;;;;;;;;;;;;;;18.83;62.87;99209.97;2099094;28;19928;-50
2022/05/10 03:13:30;;;;;;;;;;;;;;;18.83;62.75;99204.59;2101059;28;19938;-50
2022/05/10 03:14:30;;;;;;;;;;;;;;;18.84;63.00;99194.69;2100760;28;19931;-49
2022/05/10 03:15:33;;;;;;;;;;;;;;;18.84;62.89;99200.91;2102798;28;19928;-49
2022/05/10 03:16:35;;;;;;;;;;;;;;;18.84;62.88;99200.91;2098229;28;19924;-47
2022/05/10 03:17:37;;;;;;;;;;;;;;;18.84;62.80;99194.69;2094864;28;19959;-48
2022/05/10 03:18:38;;;;;;;;;;;;;;;18.83;63.10;99201.91;2098221;28;19928;-48
2022/05/10 03:19:40;;;;;;;;;;;;;;;18.80;63.02;99199.59;2096826;28;20438;-49
2022/05/10 03:20:40;;;;;;;;;;;;;;;18.83;62.79;99204.59;2100929;28;19935;-47
2022/05/10 03:21:42;;;;;;;;;;;;;;;18.83;62.66;99199.22;2098027;28;19928;-47
2022/05/10 03:22:42;;;;;;;;;;;;;;;18.84;63.04;99200.06;2102224;28;19932;-47
2022/05/10 03:23:44;;;;;;;;;;;;;;;18.83;63.08;99199.22;2099151;28;19970;-47
2022/05/10 03:24:45;;;;;;;;;;;;;;;18.82;63.06;99200.25;2099990;28;19973;-49
2022/05/10 03:25:46;;;;;;;;;;;;;;;18.83;62.71;99196.53;2097223;28;19977;-47
2022/05/10 03:26:49;;;;;;;;;;;;;;;18.81;62.88;99203.97;2099633;28;19959;-50
2022/05/10 03:27:50;;;;;;;;;;;;;;;18.82;63.01;99199.44;2099826;28;21617;-48
2022/05/10 03:28:51;;;;;;;;;;;;;;;18.81;62.89;99198.59;2100563;28;19943;-46
2022/05/10 03:29:53;;;;;;;;;;;;;;;18.81;62.96;99192.41;2098966;28;20513;-49
2022/05/10 03:30:54;;;;;;;;;;;;;;;18.84;62.80;99198.22;2098762;28;19928;-50
2022/05/10 03:31:57;;;;;;;;;;;;;;;18.85;62.85;99201.72;2096409;28;20391;-47
2022/05/10 03:32:58;;;;;;;;;;;;;;;18.84;62.62;99195.53;2094955;28;19924;-49
2022/05/10 03:35:18;;;;;;;;;;;;;;;18.82;63.01;99189.50;2098383;28;19929;-47
2022/05/10 03:36:20;;;;;;;;;;;;;;;18.83;62.90;99193.00;2095508;28;19993;-48
2022/05/10 03:37:20;;;;;;;;;;;;;;;18.84;62.88;99197.38;2096279;28;19938;-48
2022/05/10 03:38:22;;;;;;;;;;;;;;;18.82;63.04;99192.19;2097697;28;20113;-50
2022/05/10 03:39:24;;;;;;;;;;;;;;;18.82;62.95;99197.56;2099464;28;19928;-50
2022/05/10 03:40:25;;;;;;;;;;;;;;;18.82;62.85;99192.19;2097005;28;19936;-48
2022/05/10 03:41:26;;;;;;;;;;;;;;;18.82;62.94;99191.38;2096194;28;19932;-46
2022/05/10 03:42:28;;;;;;;;;;;;;;;18.82;62.81;99191.38;2099142;28;20030;-47
2022/05/10 03:43:30;;;;;;;;;;;;;;;18.82;62.75;99191.38;2098836;28;19928;-50
2022/05/10 03:44:30;;;;;;;;;;;;;;;18.83;62.86;99193.84;2095167;28;19932;-47
2022/05/10 03:45:32;;;;;;;;;;;;;;;18.81;62.76;99195.91;2095077;28;19924;-49
2022/05/10 03:46:33;;;;;;;;;;;;;;;18.82;62.65;99194.88;2098461;28;19935;-53
2022/05/10 03:47:36;;;;;;;;;;;;;;;18.83;62.96;99198.38;2094290;28;19938;-49
2022/05/10 03:48:36;;;;;;;;;;;;;;;18.82;62.83;99196.75;2097048;28;19952;-47
2022/05/10 03:49:38;;;;;;;;;;;;;;;18.82;62.92;99196.75;2098985;28;19928;-50
2022/05/10 03:50:39;;;;;;;;;;;;;;;18.81;62.79;99195.91;2096440;28;20014;-50
2022/05/10 03:51:40;;;;;;;;;;;;;;;18.81;62.81;99197.78;2098336;28;19928;-46
2022/05/10 03:52:43;;;;;;;;;;;;;;;18.81;63.08;99198.59;2100388;28;20393;-50
2022/05/10 03:53:43;;;;;;;;;;;;;;;18.81;62.94;99206.66;2097811;28;21917;-49
2022/05/10 03:54:45;;;;;;;;;;;;;;;18.81;62.88;99198.59;2101027;28;20010;-53
2022/05/10 03:55:45;;;;;;;;;;;;;;;18.81;62.76;99206.66;2100074;28;19932;-48
2022/05/10 03:56:47;;;;;;;;;;;;;;;18.81;62.78;99213.91;2098919;28;20477;-49
2022/05/10 03:57:48;;;;;;;;;;;;;;;18.80;62.78;99202.28;2099035;28;20019;-53
2022/05/10 03:58:49;;;;;;;;;;;;;;;18.82;62.82;99207.50;2100547;28;19938;-49
2022/05/10 03:59:50;;;;;;;;;;;;;;;18.81;63.08;99206.66;2102094;28;19935;-49
2022/05/10 04:00:51;;;;;;;;;;;;;;;18.80;62.80;99206.84;2101466;28;20110;-48
2022/05/10 04:01:52;;;;;;;;;;;;;;;18.82;63.06;99205.63;2100387;28;19924;-52
2022/05/10 04:02:55;;;;;;;;;;;;;;;18.81;62.89;99206.66;2095960;28;19950;-48
2022/05/10 04:03:56;;;;;;;;;;;;;;;18.81;62.83;99209.34;2097765;28;20730;-55
2022/05/10 04:04:57;;;;;;;;;;;;;;;18.80;62.85;99201.47;2093630;28;19932;-49
2022/05/10 04:05:58;;;;;;;;;;;;;;;18.82;62.83;99211.00;2094854;28;20383;-48
2022/05/10 04:07:00;;;;;;;;;;;;;;;18.82;62.99;99205.63;2098360;28;19932;-48
2022/05/10 04:08:01;;;;;;;;;;;;;;;18.82;62.93;99207.50;2098004;28;19930;-51
2022/05/10 04:09:02;;;;;;;;;;;;;;;18.80;62.93;99210.34;2097423;28;19943;-49
2022/05/10 04:10:04;;;;;;;;;;;;;;;18.80;62.89;99213.03;2098807;28;19935;-47
2022/05/10 04:11:05;;;;;;;;;;;;;;;18.78;63.00;99209.72;2096704;28;20568;-48
2022/05/10 04:12:07;;;;;;;;;;;;;;;18.79;62.81;99214.06;2098266;28;19928;-47
2022/05/10 04:13:09;;;;;;;;;;;;;;;18.78;62.81;99211.56;2098997;28;19945;-49
2022/05/10 04:14:11;;;;;;;;;;;;;;;18.79;62.80;99216.75;2099098;28;19935;-50
2022/05/10 04:15:14;;;;;;;;;;;;;;;18.79;62.88;99216.75;2099908;28;19928;-52
2022/05/10 04:16:16;;;;;;;;;;;;;;;18.79;62.83;99219.44;2098358;28;19931;-47
2022/05/10 04:17:17;;;;;;;;;;;;;;;18.78;62.68;99220.47;2098372;28;20059;-48
2022/05/10 04:18:20;;;;;;;;;;;;;;;18.80;62.76;99223.78;2092616;28;19939;-48
2022/05/10 04:19:20;;;;;;;;;;;;;;;18.80;62.96;99220.28;2097853;28;20018;-49
2022/05/10 04:20:22;;;;;;;;;;;;;;;18.80;62.77;99226.47;2096003;28;20271;-49
2022/05/10 04:21:23;;;;;;;;;;;;;;;18.81;63.01;99224.66;2098702;28;19928;-49
2022/05/10 04:22:24;;;;;;;;;;;;;;;18.80;62.62;99226.47;2098690;28;20105;-48
2022/05/10 04:23:25;;;;;;;;;;;;;;;18.79;63.03;99227.50;2098345;28;19928;-48
2022/05/10 04:24:26;;;;;;;;;;;;;;;18.78;62.85;99223.16;2098688;28;20001;-50
2022/05/10 04:25:27;;;;;;;;;;;;;;;18.77;62.92;99226.88;2093245;28;19924;-48
2022/05/10 04:26:29;;;;;;;;;;;;;;;18.78;62.81;99223.16;2100566;28;19928;-47
2022/05/10 04:27:29;;;;;;;;;;;;;;;18.80;62.76;99231.03;2100541;28;19932;-50
2022/05/10 04:28:31;;;;;;;;;;;;;;;18.78;63.03;99225.84;2097984;28;20411;-54
2022/05/10 04:29:32;;;;;;;;;;;;;;;18.79;63.02;99227.50;2099197;28;19924;-54
2022/05/10 04:30:33;;;;;;;;;;;;;;;18.80;62.61;99226.47;2098378;28;20462;-49
2022/05/10 04:31:34;;;;;;;;;;;;;;;18.81;63.03;99228.16;2100153;28;21505;-47
2022/05/10 04:32:38;;;;;;;;;;;;;;;18.78;62.96;99225.84;2099770;28;19928;-49
2022/05/10 04:33:40;;;;;;;;;;;;;;;18.81;62.58;99230.03;2096661;28;19968;-49
2022/05/10 04:34:41;;;;;;;;;;;;;;;18.80;62.68;99220.28;2095251;28;20442;-51
2022/05/10 04:35:42;;;;;;;;;;;;;;;18.78;62.79;99227.69;2099619;28;19924;-48
2022/05/10 04:36:44;;;;;;;;;;;;;;;18.78;62.78;99225.84;2099287;28;20026;-51
2022/05/10 04:37:45;;;;;;;;;;;;;;;18.77;63.01;99232.22;2099636;28;19931;-49
2022/05/10 04:38:46;;;;;;;;;;;;;;;18.77;62.75;99234.91;2093912;28;19982;-47
2022/05/10 04:41:27;;;;;;;;;;;;;;;18.77;63.01;99232.22;2099121;28;19928;-47
2022/05/10 04:42:32;;;;;;;;;;;;;;;18.76;63.19;99235.97;2100241;28;19931;-49
2022/05/10 04:43:32;;;;;;;;;;;;;;;18.77;63.01;99231.41;2100258;28;19936;-51
2022/05/10 04:44:34;;;;;;;;;;;;;;;18.78;62.91;99233.91;2096639;28;19927;-48
2022/05/10 04:45:34;;;;;;;;;;;;;;;18.78;62.63;99236.59;2100033;28;19928;-48
2022/05/10 04:46:37;;;;;;;;;;;;;;;18.79;62.93;99243.63;2101181;28;19936;-52
2022/05/10 04:47:37;;;;;;;;;;;;;;;18.78;62.99;99233.06;2098815;28;20431;-50
2022/05/10 04:48:40;;;;;;;;;;;;;;;18.78;62.72;99233.91;2093177;28;20047;-52
2022/05/10 04:49:42;;;;;;;;;;;;;;;18.79;62.65;99235.56;2095829;28;20011;-55
2022/05/10 04:50:42;;;;;;;;;;;;;;;18.79;62.69;99232.88;2096318;28;19965;-55
2022/05/10 04:51:44;;;;;;;;;;;;;;;18.77;63.04;99234.09;2097011;28;20571;-50
2022/05/10 04:52:44;;;;;;;;;;;;;;;18.79;62.94;99235.56;2098430;28;19928;-48
2022/05/10 04:53:47;;;;;;;;;;;;;;;18.77;62.82;99234.09;2099234;28;19928;-47
2022/05/10 04:54:47;;;;;;;;;;;;;;;18.77;62.89;99239.47;2093625;28;19955;-46
2022/05/10 04:55:49;;;;;;;;;;;;;;;18.78;62.74;99239.28;2098337;28;19932;-50
2022/05/10 04:56:50;;;;;;;;;;;;;;;18.79;62.79;99238.25;2099494;28;19928;-47
2022/05/10 04:57:51;;;;;;;;;;;;;;;18.80;62.74;99244.47;2098320;28;19932;-48
2022/05/10 04:58:54;;;;;;;;;;;;;;;18.78;62.84;99243.81;2099337;28;19930;-48
2022/05/10 04:59:55;;;;;;;;;;;;;;;18.76;62.65;99244.00;2097897;28;19928;-47
2022/05/10 05:00:59;;;;;;;;;;;;;;;18.78;62.96;99241.97;2098393;28;20046;-49
2022/05/10 05:02:00;;;;;;;;;;;;;;;18.77;63.02;99239.47;2100168;28;20003;-51
2022/05/10 05:03:01;;;;;;;;;;;;;;;18.77;62.73;99251.03;2099215;28;20019;-46
2022/05/10 05:04:04;;;;;;;;;;;;;;;18.74;62.59;99241.50;2093228;28;19930;-50
2022/05/10 05:05:05;;;;;;;;;;;;;;;18.77;62.79;99236.78;2096028;28;20593;-49
2022/05/10 05:06:06;;;;;;;;;;;;;;;18.77;62.90;99247.53;2095683;28;19928;-55
2022/05/10 05:07:09;;;;;;;;;;;;;;;18.78;62.75;99250.03;2101143;28;19928;-49
2022/05/10 05:08:10;;;;;;;;;;;;;;;18.79;62.85;99250.88;2098699;28;20386;-54
2022/05/10 05:09:11;;;;;;;;;;;;;;;18.76;62.76;99254.78;2095211;28;19924;-54
2022/05/10 05:10:12;;;;;;;;;;;;;;;18.77;62.87;99258.28;2099467;28;19962;-54
2022/05/10 05:11:13;;;;;;;;;;;;;;;18.77;62.64;99251.03;2096269;28;19977;-48
2022/05/10 05:12:15;;;;;;;;;;;;;;;18.76;62.76;99252.06;2096493;28;19928;-50
2022/05/10 05:13:16;;;;;;;;;;;;;;;18.77;62.74;99248.34;2093091;28;19947;-49
2022/05/10 05:14:18;;;;;;;;;;;;;;;18.77;62.81;99259.09;2097518;28;20007;-48
2022/05/10 05:15:18;;;;;;;;;;;;;;;18.77;63.06;99256.41;2097050;28;19928;-47
2022/05/10 05:16:20;;;;;;;;;;;;;;;18.78;62.69;99252.72;2100572;28;19936;-48
2022/05/10 05:17:22;;;;;;;;;;;;;;;18.76;62.98;99254.78;2099415;28;19931;-51
2022/05/10 05:18:24;;;;;;;;;;;;;;;18.78;62.81;99254.56;2099521;28;19928;-49
2022/05/10 05:19:26;;;;;;;;;;;;;;;18.77;63.01;99264.47;2100389;28;19924;-48
2022/05/10 05:20:27;;;;;;;;;;;;;;;18.76;63.18;99262.81;2100895;28;19932;-47
2022/05/10 05:21:28;;;;;;;;;;;;;;;18.77;63.19;99264.47;2099306;28;19968;-51
2022/05/10 05:22:30;;;;;;;;;;;;;;;18.76;63.17;99268.19;2097698;28;19935;-51
2022/05/10 05:23:30;;;;;;;;;;;;;;;18.77;63.27;99269.03;2092471;28;19928;-50
2022/05/10 05:24:32;;;;;;;;;;;;;;;18.77;63.25;99269.03;2095552;28;19925;-51
2022/05/10 05:25:33;;;;;;;;;;;;;;;18.78;63.30;99265.31;2100587;28;20026;-50
2022/05/10 05:26:34;;;;;;;;;;;;;;;18.78;62.83;99263.47;2096506;28;20026;-48
2022/05/10 05:27:35;;;;;;;;;;;;;;;18.78;63.21;99268.00;2096052;28;19977;-48
2022/05/10 05:28:37;;;;;;;;;;;;;;;18.78;63.20;99266.16;2098272;28;20022;-49
2022/05/10 05:29:37;;;;;;;;;;;;;;;18.77;63.09;99269.03;2098705;28;19928;-48
2022/05/10 05:30:40;;;;;;;;;;;;;;;18.76;62.89;99270.88;2101899;28;21829;-49
2022/05/10 05:31:42;;;;;;;;;;;;;;;18.75;63.04;99266.56;2097742;28;19924;-47